Terminal Aerodrome Forecast
Issued by NWS Wilmington, OH

Current Version | Previous Version | Graphics & Text | Print | Product List | Glossary On
Versions: 1 2 3 4 5 6 7 8 9 10 11 12 13 14
000
FTUS41 KILN 020500
TAFILN
TAF
KILN 020520Z 0206/0306 VRB02KT P6SM SCT250
      TEMPO 0210/0212 4SM BR
     FM021300 26007KT P6SM FEW060 SCT200
     FM030000 21002KT P6SM SKC=

USA.gov is the U.S. government's official web portal to all federal, state and local government web resources and services.